Time;durP1;ratioP1;P1;durP2;ratioP2;P2;SDS_P1;SDS_P2;PMS_P1;PMS_P2;Temp;Humidity;BMP_temperature;BMP_pressure;BME280_temperature;BME280_humidity;BME280_pressure;Samples;Min_cycle;Max_cycle;Signal;HPM_P1;HPM_P2
2021/08/08 00:00:23;;;;;;;7.80;5.95;;;14.70;78.60;;;;;;4999514;28;95160;-57
2021/08/08 00:02:55;;;;;;;8.77;6.40;;;14.80;78.70;;;;;;5000448;28;96617;-57
2021/08/08 00:05:27;;;;;;;7.68;5.82;;;14.80;78.60;;;;;;5000545;28;95762;-56
2021/08/08 00:08:00;;;;;;;9.27;6.70;;;14.80;78.50;;;;;;4983906;28;95030;-57
2021/08/08 00:10:32;;;;;;;9.25;6.90;;;14.80;78.30;;;;;;5001092;28;95147;-56
2021/08/08 00:13:04;;;;;;;10.02;6.47;;;14.80;78.10;;;;;;5000100;28;96428;-56
2021/08/08 00:15:38;;;;;;;9.00;7.20;;;14.90;77.90;;;;;;4998037;28;95735;-56
2021/08/08 00:18:11;;;;;;;11.70;8.38;;;14.90;78.10;;;;;;4998015;28;95146;-55
2021/08/08 00:20:44;;;;;;;11.10;9.05;;;14.80;78.20;;;;;;4995502;28;95295;-56
2021/08/08 00:23:17;;;;;;;9.77;7.70;;;14.80;78.30;;;;;;4982449;28;95398;-55
2021/08/08 00:25:49;;;;;;;10.13;7.47;;;14.80;78.40;;;;;;4999919;28;95851;-56
2021/08/08 00:28:22;;;;;;;8.25;7.28;;;14.80;78.40;;;;;;5000000;28;95013;-56
2021/08/08 00:30:58;;;;;;;9.15;7.15;;;14.90;78.40;;;;;;4999413;28;95174;-56
2021/08/08 00:33:32;;;;;;;10.05;7.28;;;14.90;78.40;;;;;;4965748;28;96437;-55
2021/08/08 00:36:05;;;;;;;8.75;7.13;;;14.90;78.40;;;;;;4981246;28;94836;-57
2021/08/08 00:38:38;;;;;;;8.30;6.90;;;14.90;78.40;;;;;;4981250;28;95034;-57
2021/08/08 00:41:10;;;;;;;7.65;6.20;;;15.00;78.40;;;;;;4999986;28;95151;-55
2021/08/08 00:43:41;;;;;;;;;;;15.10;78.30;;;;;;4999882;28;96215;-57
2021/08/08 00:46:13;;;;;;;6.40;5.70;;;15.20;78.20;;;;;;4980614;28;95888;-57
2021/08/08 00:48:48;;;;;;;7.90;6.40;;;15.30;78.00;;;;;;4983366;28;95100;-56
2021/08/08 00:51:23;;;;;;;7.05;5.63;;;15.30;77.80;;;;;;5000562;28;95269;-56
2021/08/08 00:53:57;;;;;;;6.32;5.50;;;15.40;78.00;;;;;;4981714;28;96412;-56
2021/08/08 00:56:33;;;;;;;7.20;5.57;;;15.40;78.10;;;;;;4999930;28;95821;-55
2021/08/08 00:59:06;;;;;;;9.65;5.82;;;15.40;78.20;;;;;;4999583;28;94964;-56
2021/08/08 01:01:46;;;;;;;8.52;6.47;;;15.40;78.40;;;;;;4996166;28;95420;-55
2021/08/08 01:04:35;;;;;;;6.65;5.75;;;15.40;78.20;;;;;;4982446;28;96459;-53
2021/08/08 01:07:21;;;;;;;6.55;5.50;;;15.40;78.30;;;;;;4998646;28;95081;-56
2021/08/08 01:09:58;;;;;;;6.80;5.97;;;15.40;78.30;;;;;;4981061;28;94974;-55
2021/08/08 01:12:39;;;;;;;6.78;5.38;;;15.40;78.30;;;;;;4997982;28;95365;-54
2021/08/08 01:15:11;;;;;;;6.88;5.50;;;15.40;78.20;;;;;;4998601;28;96611;-54
2021/08/08 01:17:46;;;;;;;9.32;5.50;;;15.40;78.20;;;;;;4977594;28;95959;-54
2021/08/08 01:20:18;;;;;;;6.50;5.28;;;15.40;78.10;;;;;;4976632;28;95363;-56
2021/08/08 01:22:59;;;;;;;6.03;5.40;;;15.50;78.10;;;;;;4999422;28;95230;-57
2021/08/08 01:25:35;;;;;;;6.00;4.97;;;15.50;77.90;;;;;;4980467;28;96498;-54
2021/08/08 01:28:08;;;;;;;8.30;6.10;;;15.60;78.00;;;;;;4998513;28;95808;-54
2021/08/08 01:30:43;;;;;;;7.68;5.75;;;15.60;78.00;;;;;;4979525;28;95215;-55
2021/08/08 01:33:16;;;;;;;9.00;5.70;;;15.60;78.10;;;;;;4998847;28;95082;-53
2021/08/08 01:36:01;;;;;;;8.65;5.07;;;15.60;78.10;;;;;;4998377;28;96489;-55
2021/08/08 01:38:40;;;;;;;7.88;5.55;;;15.60;78.10;;;;;;4998699;28;94926;-55
2021/08/08 01:41:17;;;;;;;10.27;6.28;;;15.60;78.10;;;;;;4998714;28;94957;-54
2021/08/08 01:43:58;;;;;;;8.85;6.78;;;15.50;78.00;;;;;;4998844;28;95317;-55
2021/08/08 01:46:33;;;;;;;7.07;5.70;;;15.60;78.10;;;;;;4979710;28;96539;-55
2021/08/08 01:49:27;;;;;;;6.68;5.28;;;15.50;78.30;;;;;;4999471;28;95433;-54
2021/08/08 01:52:02;;;;;;;9.52;5.60;;;15.50;78.30;;;;;;4999676;28;94965;-51
2021/08/08 01:54:40;;;;;;;8.77;6.20;;;15.50;78.50;;;;;;4983437;28;95112;-52
2021/08/08 01:57:18;;;;;;;7.15;5.18;;;15.50;78.40;;;;;;4980162;28;96622;-53
2021/08/08 01:59:56;;;;;;;7.30;5.75;;;15.50;78.50;;;;;;4996386;28;95885;-53
2021/08/08 02:02:29;;;;;;;7.75;5.88;;;15.50;78.50;;;;;;4997181;28;95162;-54
2021/08/08 02:05:09;;;;;;;8.50;5.53;;;15.50;78.40;;;;;;4999309;28;95412;-53
2021/08/08 02:07:42;;;;;;;7.03;5.40;;;15.50;78.40;;;;;;4996371;28;96399;-51
2021/08/08 02:10:17;;;;;;;7.32;5.82;;;15.50;79.00;;;;;;4979835;28;95876;-53
2021/08/08 02:12:50;;;;;;;6.15;5.30;;;15.50;78.40;;;;;;4964308;28;95075;-51
2021/08/08 02:15:22;;;;;;;8.15;6.10;;;15.50;78.90;;;;;;4996750;28;95190;-49
2021/08/08 02:18:01;;;;;;;6.25;5.50;;;15.60;78.30;;;;;;4976375;28;96139;-53
2021/08/08 02:20:36;;;;;;;6.60;5.30;;;15.60;78.30;;;;;;4972917;28;95555;-53
2021/08/08 02:23:09;;;;;;;6.50;5.13;;;15.60;78.30;;;;;;4996845;28;95249;-52
2021/08/08 02:25:41;;;;;;;8.32;4.80;;;15.60;78.20;;;;;;4997793;28;95310;-54
2021/08/08 02:28:19;;;;;;;7.45;5.25;;;15.60;78.30;;;;;;4997461;28;96614;-53
2021/08/08 02:30:51;;;;;;;6.00;4.50;;;15.60;78.20;;;;;;4978527;28;95519;-51
2021/08/08 02:33:27;;;;;;;5.03;4.50;;;15.60;78.00;;;;;;4980905;28;94977;-51
2021/08/08 02:36:02;;;;;;;5.65;4.00;;;15.60;78.00;;;;;;4979816;28;95321;-53
2021/08/08 02:38:38;;;;;;;4.90;4.40;;;15.60;78.10;;;;;;4979517;28;96606;-53
2021/08/08 02:41:10;;;;;;;4.57;3.90;;;15.60;78.10;;;;;;4979435;28;95508;-54
2021/08/08 02:43:43;;;;;;;6.07;4.85;;;15.70;78.10;;;;;;4981179;28;95092;-54
2021/08/08 02:46:15;;;;;;;5.35;4.32;;;15.70;78.00;;;;;;4979112;28;95282;-55
2021/08/08 02:48:47;;;;;;;4.30;3.75;;;15.70;78.00;;;;;;4998470;28;96018;-53
2021/08/08 02:51:19;;;;;;;6.80;4.60;;;15.70;78.00;;;;;;4998525;28;95487;-53
2021/08/08 02:53:53;;;;;;;4.53;3.40;;;15.70;78.00;;;;;;4998534;28;94954;-54
2021/08/08 02:56:27;;;;;;;4.38;3.90;;;15.80;78.10;;;;;;4981005;28;95404;-55
2021/08/08 02:59:02;;;;;;;5.30;4.40;;;15.80;78.00;;;;;;4997490;28;96082;-53
2021/08/08 03:01:34;;;;;;;4.63;4.07;;;15.80;77.90;;;;;;4996028;28;95871;-53
2021/08/08 03:04:07;;;;;;;4.85;3.67;;;15.80;77.80;;;;;;4998204;28;95049;-54
2021/08/08 03:06:45;;;;;;;6.55;4.05;;;15.90;77.80;;;;;;4997942;28;95127;-55
2021/08/08 03:09:21;;;;;;;4.05;3.65;;;15.90;77.90;;;;;;4999820;28;95410;-53
2021/08/08 03:11:54;;;;;;;5.32;3.67;;;16.00;77.90;;;;;;4985547;28;95908;-54
2021/08/08 03:14:26;;;;;;;5.55;3.70;;;16.00;78.10;;;;;;5004224;28;94937;-54
2021/08/08 03:16:57;;;;;;;6.68;3.08;;;16.00;78.00;;;;;;5002414;28;95290;-53
2021/08/08 03:19:30;;;;;;;3.88;3.42;;;16.00;78.10;;;;;;4978826;28;96633;-55
2021/08/08 03:22:02;;;;;;;4.95;3.78;;;16.00;78.00;;;;;;5003218;28;95388;-51
2021/08/08 03:24:37;;;;;;;4.93;3.78;;;16.10;78.00;;;;;;4986194;28;95073;-53
2021/08/08 03:27:10;;;;;;;4.25;3.30;;;16.10;77.90;;;;;;5004138;28;95096;-54
2021/08/08 03:29:48;;;;;;;4.22;3.10;;;16.10;77.90;;;;;;5003321;28;96158;-52
2021/08/08 03:32:20;;;;;;;4.82;3.22;;;16.10;78.00;;;;;;5002492;28;95531;-51
2021/08/08 03:34:53;;;;;;;5.32;3.22;;;16.20;78.10;;;;;;4986845;28;95041;-52
2021/08/08 03:37:25;;;;;;;4.70;3.30;;;16.20;78.00;;;;;;5004324;28;95148;-54
2021/08/08 03:39:56;;;;;;;4.65;3.10;;;16.20;78.10;;;;;;5003746;28;96659;-52
2021/08/08 03:42:29;;;;;;;4.63;2.88;;;16.20;78.00;;;;;;5003376;28;96557;-53
2021/08/08 03:45:02;;;;;;;4.35;3.15;;;16.20;77.90;;;;;;5003736;28;95006;-51
2021/08/08 03:47:34;;;;;;;5.25;3.20;;;16.20;77.90;;;;;;5003244;28;95297;-51
2021/08/08 03:50:09;;;;;;;3.83;2.53;;;16.20;77.90;;;;;;5004476;28;96537;-50
2021/08/08 03:52:42;;;;;;;3.03;2.70;;;16.30;78.00;;;;;;5004107;28;95826;-54
2021/08/08 03:55:15;;;;;;;4.80;2.88;;;16.30;78.00;;;;;;5004266;28;94945;-51
2021/08/08 03:57:47;;;;;;;2.80;2.50;;;16.30;77.90;;;;;;5004342;28;95306;-52
2021/08/08 04:00:24;;;;;;;5.07;3.03;;;16.30;78.60;;;;;;4984087;28;96496;-53
2021/08/08 04:03:00;;;;;;;4.32;2.85;;;16.30;77.90;;;;;;5003738;28;95827;-51
2021/08/08 04:05:32;;;;;;;3.53;2.25;;;16.40;78.00;;;;;;4986234;28;95044;-52
2021/08/08 04:08:05;;;;;;;4.07;2.55;;;16.40;77.90;;;;;;4985650;28;95466;-52
2021/08/08 04:10:38;;;;;;;3.22;2.67;;;16.40;77.80;;;;;;4969257;28;96992;-53
2021/08/08 04:13:11;;;;;;;3.22;2.60;;;16.40;77.80;;;;;;4985634;28;95220;-50
2021/08/08 04:15:44;;;;;;;3.58;2.58;;;16.50;77.90;;;;;;5001368;28;95107;-51
2021/08/08 04:18:17;;;;;;;3.13;2.60;;;16.50;77.70;;;;;;4998920;28;95385;-53
2021/08/08 04:20:54;;;;;;;4.28;2.50;;;16.50;77.70;;;;;;4980413;28;96630;-50
2021/08/08 04:23:26;;;;;;;3.30;2.17;;;16.50;77.70;;;;;;4982147;28;95820;-50
2021/08/08 04:25:59;;;;;;;2.63;2.10;;;16.50;77.50;;;;;;5000027;28;94976;-53
2021/08/08 04:28:39;;;;;;;2.17;1.85;;;16.60;77.60;;;;;;4981950;28;95425;-49
2021/08/08 04:31:14;;;;;;;3.90;2.35;;;16.60;77.40;;;;;;4979843;28;98240;-51
2021/08/08 04:33:48;;;;;;;2.30;2.03;;;16.60;77.40;;;;;;4999109;28;95383;-53
2021/08/08 04:36:20;;;;;;;3.03;2.20;;;16.60;77.30;;;;;;4999913;28;95336;-52
2021/08/08 04:38:52;;;;;;;3.05;2.05;;;16.70;77.00;;;;;;4999808;28;95361;-54
2021/08/08 04:41:25;;;;;;;4.20;2.38;;;16.80;76.80;;;;;;4999238;28;95455;-55
2021/08/08 04:43:57;;;;;;;2.42;2.22;;;16.80;76.70;;;;;;4999683;28;95761;-53
2021/08/08 04:46:29;;;;;;;3.88;2.38;;;16.90;76.60;;;;;;4998891;28;94938;-56
2021/08/08 04:49:01;;;;;;;2.95;2.25;;;16.90;76.60;;;;;;5001029;28;95272;-56
2021/08/08 04:51:33;;;;;;;3.95;2.17;;;16.90;76.60;;;;;;5000618;28;96633;-55
2021/08/08 04:54:05;;;;;;;3.85;2.35;;;17.00;76.60;;;;;;4998357;28;97543;-53
2021/08/08 04:56:37;;;;;;;4.82;2.45;;;17.00;76.40;;;;;;4982093;28;94997;-54
2021/08/08 04:59:11;;;;;;;3.92;2.38;;;17.00;76.40;;;;;;4999302;28;95304;-53
2021/08/08 05:01:43;;;;;;;2.13;1.90;;;17.10;76.40;;;;;;4979858;28;95237;-54
2021/08/08 05:04:15;;;;;;;4.60;2.20;;;17.00;76.30;;;;;;4999544;28;95961;-55
2021/08/08 05:06:47;;;;;;;2.78;1.85;;;17.10;76.30;;;;;;4999379;28;94921;-56
2021/08/08 05:09:23;;;;;;;2.95;1.80;;;17.10;76.30;;;;;;4981311;28;95393;-56
2021/08/08 05:11:55;;;;;;;2.63;1.95;;;17.10;76.20;;;;;;4981178;28;96913;-56
2021/08/08 05:14:30;;;;;;;4.22;2.13;;;17.10;76.20;;;;;;4980684;28;95898;-55
2021/08/08 05:17:01;;;;;;;3.00;2.15;;;17.10;76.00;;;;;;4998214;28;94938;-56
2021/08/08 05:19:34;;;;;;;4.13;2.08;;;17.10;76.00;;;;;;4993486;28;95318;-54
2021/08/08 05:22:08;;;;;;;2.10;1.70;;;17.10;76.00;;;;;;4998324;28;96424;-55
2021/08/08 05:24:40;;;;;;;2.45;1.98;;;17.10;76.00;;;;;;4981167;28;95219;-52
2021/08/08 05:27:12;;;;;;;2.97;2.10;;;17.10;75.90;;;;;;4981400;28;95056;-56
2021/08/08 05:29:45;;;;;;;3.05;2.38;;;17.10;75.90;;;;;;4981100;28;95433;-55
2021/08/08 05:32:17;;;;;;;4.85;2.80;;;17.10;75.90;;;;;;4995667;28;96436;-56
2021/08/08 05:34:49;;;;;;;4.50;2.97;;;17.10;76.00;;;;;;4964223;28;95186;-55
2021/08/08 05:37:22;;;;;;;5.40;2.88;;;17.20;76.00;;;;;;4999008;28;94914;-52
2021/08/08 05:39:54;;;;;;;8.60;3.58;;;17.10;76.40;;;;;;4999304;28;95080;-53
2021/08/08 05:42:25;;;;;;;6.22;3.13;;;17.20;76.40;;;;;;4981518;28;96508;-52
2021/08/08 05:44:57;;;;;;;8.23;3.85;;;17.20;76.50;;;;;;4980433;28;95885;-50
2021/08/08 05:47:30;;;;;;;11.13;3.00;;;17.20;76.50;;;;;;4997648;28;95133;-53
2021/08/08 05:50:03;;;;;;;11.27;3.55;;;17.20;76.60;;;;;;4981563;28;95305;-50
2021/08/08 05:52:35;;;;;;;6.00;3.58;;;17.20;76.70;;;;;;4998712;28;96796;-49
2021/08/08 05:55:11;;;;;;;9.02;4.07;;;17.20;76.70;;;;;;4999269;28;95507;-49
2021/08/08 05:57:45;;;;;;;7.80;3.88;;;17.20;76.80;;;;;;4999294;28;95113;-49
2021/08/08 06:00:20;;;;;;;9.93;4.50;;;17.20;76.70;;;;;;4998512;28;95494;-55
2021/08/08 06:03:07;;;;;;;12.00;6.57;;;17.20;76.80;;;;;;4998108;28;102959;-53
2021/08/08 06:05:44;;;;;;;17.95;7.15;;;17.20;76.90;;;;;;4998293;28;95415;-53
2021/08/08 06:08:16;;;;;;;13.00;6.72;;;17.20;77.00;;;;;;4998759;28;94973;-53
2021/08/08 06:10:50;;;;;;;23.25;8.77;;;17.20;77.00;;;;;;4998513;28;95341;-52
2021/08/08 06:13:24;;;;;;;16.25;8.52;;;17.20;77.00;;;;;;4980459;28;95688;-53
2021/08/08 06:15:57;;;;;;;20.23;8.50;;;17.20;77.10;;;;;;4979576;28;96692;-50
2021/08/08 06:18:29;;;;;;;15.23;9.20;;;17.10;77.10;;;;;;4994533;28;95199;-50
2021/08/08 06:21:00;;;;;;;22.17;9.18;;;17.20;77.20;;;;;;4993844;28;95477;-53
2021/08/08 06:23:42;;;;;;;15.30;8.02;;;17.20;77.30;;;;;;4996324;28;94992;-54
2021/08/08 06:26:15;;;;;;;15.55;8.52;;;17.10;77.20;;;;;;4979690;28;95876;-50
2021/08/08 06:28:48;;;;;;;21.50;8.73;;;17.10;77.20;;;;;;4998025;28;94964;-51
2021/08/08 06:31:21;;;;;;;14.82;8.15;;;17.10;77.30;;;;;;4978241;28;95339;-51
2021/08/08 06:33:54;;;;;;;14.52;8.05;;;17.10;77.30;;;;;;4997533;28;96400;-50
2021/08/08 06:36:28;;;;;;;14.55;8.48;;;17.10;77.30;;;;;;4997489;28;97511;-52
2021/08/08 06:39:04;;;;;;;12.95;7.60;;;17.10;77.40;;;;;;4997951;28;94969;-54
2021/08/08 06:41:37;;;;;;;13.23;7.07;;;17.10;77.40;;;;;;4996407;28;95319;-51
2021/08/08 06:44:10;;;;;;;13.77;8.13;;;17.10;77.50;;;;;;4979177;28;95221;-50
2021/08/08 06:46:42;;;;;;;13.90;7.35;;;17.10;77.50;;;;;;4996668;28;95498;-53
2021/08/08 06:49:14;;;;;;;14.32;6.88;;;17.00;77.40;;;;;;4997084;28;95069;-52
2021/08/08 06:51:46;;;;;;;15.07;7.63;;;17.10;77.50;;;;;;4998946;28;95206;-52
2021/08/08 06:54:19;;;;;;;12.20;7.72;;;17.10;77.50;;;;;;4998171;28;96368;-54
2021/08/08 06:56:52;;;;;;;16.33;7.50;;;17.00;77.50;;;;;;4997721;28;95802;-51
2021/08/08 06:59:30;;;;;;;14.38;7.07;;;17.00;77.60;;;;;;4998224;28;95062;-52
2021/08/08 07:02:04;;;;;;;22.50;7.30;;;17.00;77.60;;;;;;4979064;28;95508;-49
2021/08/08 07:04:38;;;;;;;12.45;6.90;;;17.00;77.70;;;;;;4997796;28;95467;-50
2021/08/08 07:07:17;;;;;;;12.30;6.53;;;17.00;77.80;;;;;;4997023;28;95964;-54
2021/08/08 07:09:50;;;;;;;8.73;6.50;;;17.00;77.80;;;;;;4997217;28;95015;-51
2021/08/08 07:12:24;;;;;;;10.55;5.82;;;17.00;77.90;;;;;;4979683;28;95425;-52
2021/08/08 07:14:56;;;;;;;9.55;6.45;;;16.90;77.90;;;;;;4996873;28;96642;-57
2021/08/08 07:17:28;;;;;;;10.52;6.45;;;16.90;77.80;;;;;;4993946;28;95993;-56
2021/08/08 07:20:03;;;;;;;9.80;5.93;;;17.00;77.60;;;;;;4989243;28;95351;-56
2021/08/08 07:22:36;;;;;;;12.15;6.30;;;16.90;77.30;;;;;;4997759;28;95164;-55
2021/08/08 07:25:10;;;;;;;13.38;6.65;;;17.00;77.20;;;;;;4980290;28;96396;-57
2021/08/08 07:27:44;;;;;;;10.60;5.72;;;17.00;77.10;;;;;;4996812;28;96040;-57
2021/08/08 07:30:16;;;;;;;8.73;5.45;;;17.00;77.00;;;;;;4997475;28;94937;-57
2021/08/08 07:32:49;;;;;;;9.13;6.40;;;17.00;77.00;;;;;;4979237;28;97871;-55
2021/08/08 07:35:26;;;;;;;12.68;6.38;;;17.00;76.90;;;;;;4996766;28;96459;-55
2021/08/08 07:37:58;;;;;;;9.57;5.53;;;17.00;76.90;;;;;;4997060;28;95725;-55
2021/08/08 07:40:31;;;;;;;10.00;5.75;;;17.00;76.90;;;;;;4996856;28;94972;-52
2021/08/08 07:43:07;;;;;;;13.85;6.22;;;17.00;76.80;;;;;;4997500;28;95253;-55
2021/08/08 07:45:42;;;;;;;9.98;6.47;;;17.00;76.80;;;;;;4995969;28;96431;-54
2021/08/08 07:48:16;;;;;;;9.27;5.55;;;16.90;76.80;;;;;;4997350;28;95821;-55
2021/08/08 07:50:50;;;;;;;10.07;6.07;;;16.90;76.70;;;;;;4998222;28;94845;-57
2021/08/08 07:53:22;;;;;;;8.93;6.03;;;16.90;76.70;;;;;;4981216;28;95199;-56
2021/08/08 07:55:57;;;;;;;9.85;5.40;;;16.90;76.70;;;;;;4997718;28;96571;-56
2021/08/08 07:58:31;;;;;;;9.75;5.38;;;16.90;76.70;;;;;;4999846;28;95367;-55
2021/08/08 08:01:04;;;;;;;6.70;5.00;;;16.90;76.70;;;;;;4998783;28;95409;-55
2021/08/08 08:03:40;;;;;;;9.18;5.80;;;16.90;76.60;;;;;;5000909;28;95278;-55
2021/08/08 08:06:17;;;;;;;9.25;4.60;;;16.90;76.60;;;;;;5000169;28;96493;-54
2021/08/08 08:08:50;;;;;;;8.60;5.15;;;16.90;76.60;;;;;;5000007;28;95867;-56
2021/08/08 08:11:24;;;;;;;7.95;5.03;;;16.90;76.80;;;;;;4982722;28;94956;-55
2021/08/08 08:13:59;;;;;;;7.68;4.57;;;16.90;76.50;;;;;;5000233;28;95353;-55
2021/08/08 08:16:32;;;;;;;6.05;4.40;;;17.00;76.60;;;;;;4997647;28;96628;-54
2021/08/08 08:19:05;;;;;;;7.20;4.57;;;17.00;76.60;;;;;;4976921;28;95776;-55
2021/08/08 08:21:38;;;;;;;10.48;5.03;;;17.00;76.70;;;;;;4997093;28;95305;-52
2021/08/08 08:24:10;;;;;;;8.90;4.95;;;17.00;76.80;;;;;;4999786;28;95322;-54
2021/08/08 08:26:44;;;;;;;14.10;6.40;;;17.10;76.80;;;;;;4999335;28;96561;-52
2021/08/08 08:29:20;;;;;;;8.48;6.18;;;17.20;76.70;;;;;;4981861;28;94945;-53
2021/08/08 08:31:52;;;;;;;10.63;6.53;;;17.30;76.70;;;;;;4997984;28;95052;-52
2021/08/08 08:34:25;;;;;;;8.10;5.95;;;17.40;76.80;;;;;;5000126;28;95061;-49
2021/08/08 08:36:59;;;;;;;9.50;6.07;;;17.50;77.10;;;;;;4999743;28;96507;-50
2021/08/08 08:39:32;;;;;;;12.68;7.03;;;17.40;77.40;;;;;;4999476;28;95276;-51
2021/08/08 08:42:09;;;;;;;9.65;6.13;;;17.40;77.80;;;;;;5000031;28;94941;-51
2021/08/08 08:44:41;;;;;;;10.40;7.03;;;17.40;78.20;;;;;;4999870;28;95372;-51
2021/08/08 08:47:17;;;;;;;12.30;7.65;;;17.40;78.40;;;;;;4999120;28;95439;-51
2021/08/08 08:50:01;;;;;;;12.18;7.32;;;17.40;78.70;;;;;;4999763;28;95891;-52
2021/08/08 08:52:35;;;;;;;12.13;7.30;;;17.40;78.90;;;;;;4999749;28;94973;-52
2021/08/08 08:55:11;;;;;;;9.35;6.88;;;17.40;78.90;;;;;;5000675;28;95303;-52
2021/08/08 08:57:44;;;;;;;10.15;7.72;;;17.30;79.10;;;;;;4999781;28;96384;-49
2021/08/08 09:00:17;;;;;;;13.95;7.78;;;17.30;79.10;;;;;;4999734;28;94940;-51
2021/08/08 09:02:49;;;;;;;11.73;7.53;;;17.30;79.10;;;;;;4998435;28;95441;-49
2021/08/08 09:05:23;;;;;;;10.45;7.13;;;17.30;79.10;;;;;;5000284;28;95282;-50
2021/08/08 09:07:57;;;;;;;10.80;7.68;;;17.20;79.10;;;;;;4999529;28;96097;-51
2021/08/08 09:10:30;;;;;;;13.20;8.48;;;17.20;79.20;;;;;;4998794;28;95423;-49
2021/08/08 09:13:05;;;;;;;10.43;7.47;;;17.20;79.10;;;;;;4999269;28;95010;-50
2021/08/08 09:15:43;;;;;;;11.98;7.53;;;17.10;79.10;;;;;;4979642;28;95375;-50
2021/08/08 09:18:21;;;;;;;12.27;7.05;;;17.10;79.10;;;;;;4994878;28;96450;-51
2021/08/08 09:21:09;;;;;;;9.27;7.20;;;17.10;79.10;;;;;;4977882;28;95736;-52
2021/08/08 09:23:44;;;;;;;10.55;7.40;;;17.10;79.50;;;;;;4998765;28;95007;-50
2021/08/08 09:26:14;;;;;;;;;;;17.10;79.10;;;;;;4999513;28;95281;-55
2021/08/08 09:28:46;;;;;;;11.00;7.65;;;17.20;79.40;;;;;;5000205;28;95371;-54
2021/08/08 09:31:21;;;;;;;9.38;7.40;;;17.20;78.70;;;;;;4996787;28;95433;-52
2021/08/08 09:33:52;;;;;;;10.52;7.60;;;17.30;78.50;;;;;;4999179;28;94948;-53
2021/08/08 09:36:25;;;;;;;9.20;6.95;;;17.30;78.20;;;;;;4980898;28;95974;-55
2021/08/08 09:38:57;;;;;;;10.27;7.22;;;17.40;78.10;;;;;;4998652;28;95400;-53
2021/08/08 09:41:32;;;;;;;15.15;8.77;;;17.50;78.10;;;;;;4996665;28;95111;-54
2021/08/08 09:44:08;;;;;;;14.48;8.88;;;17.60;78.20;;;;;;4998840;28;94946;-51
2021/08/08 09:46:41;;;;;;;13.93;9.15;;;17.60;78.10;;;;;;4998873;28;95122;-54
2021/08/08 09:49:15;;;;;;;16.48;9.70;;;17.60;78.10;;;;;;4999387;28;96444;-52
2021/08/08 09:51:51;;;;;;;13.45;9.00;;;17.50;78.10;;;;;;4999474;28;94932;-52
2021/08/08 09:54:37;;;;;;;14.15;9.23;;;17.50;78.20;;;;;;4999325;28;95253;-49
2021/08/08 09:57:09;;;;;;;14.75;9.82;;;17.50;78.20;;;;;;4999386;28;95201;-52
2021/08/08 09:59:49;;;;;;;15.07;9.43;;;17.50;78.30;;;;;;4998581;28;96219;-50
2021/08/08 10:02:23;;;;;;;16.30;9.98;;;17.40;78.30;;;;;;4979080;28;95598;-49
2021/08/08 10:04:57;;;;;;;17.25;10.52;;;17.40;78.30;;;;;;4981501;28;94999;-54
2021/08/08 10:07:31;;;;;;;14.73;8.77;;;17.30;78.10;;;;;;4998364;28;95159;-53
2021/08/08 10:10:04;;;;;;;15.02;9.68;;;17.30;78.30;;;;;;4979739;28;98043;-54
2021/08/08 10:12:43;;;;;;;12.60;9.43;;;17.20;78.20;;;;;;4998178;28;95505;-53
2021/08/08 10:15:14;;;;;;;14.88;9.98;;;17.10;78.20;;;;;;4998162;28;94945;-49
2021/08/08 10:17:48;;;;;;;17.27;9.70;;;17.10;78.20;;;;;;4995390;28;95444;-52
2021/08/08 10:20:22;;;;;;;18.20;10.32;;;17.00;78.10;;;;;;4991366;28;96384;-53
2021/08/08 10:22:56;;;;;;;19.70;12.00;;;17.00;78.00;;;;;;4979945;28;95896;-51
2021/08/08 10:25:27;;;;;;;15.10;9.95;;;16.90;78.00;;;;;;4980624;28;94986;-49
2021/08/08 10:28:01;;;;;;;14.95;10.55;;;16.80;77.80;;;;;;4997960;28;95311;-52
2021/08/08 10:30:37;;;;;;;16.02;10.52;;;16.80;77.90;;;;;;4977142;28;95427;-53
2021/08/08 10:33:10;;;;;;;18.05;11.27;;;16.80;77.90;;;;;;4963635;28;95917;-53
2021/08/08 10:35:48;;;;;;;18.98;11.77;;;16.70;77.70;;;;;;4997659;28;95094;-51
2021/08/08 10:38:21;;;;;;;20.30;11.52;;;16.70;77.80;;;;;;4963330;28;95447;-51
2021/08/08 10:40:53;;;;;;;13.75;10.43;;;16.60;77.80;;;;;;4978752;28;95179;-50
2021/08/08 10:43:28;;;;;;;18.58;11.10;;;16.60;77.80;;;;;;4997294;28;94885;-52
2021/08/08 10:46:05;;;;;;;14.93;10.60;;;16.60;77.90;;;;;;4995571;28;95163;-49
2021/08/08 10:48:39;;;;;;;14.35;11.20;;;16.50;78.00;;;;;;4998373;28;95155;-51
2021/08/08 10:51:26;;;;;;;16.73;10.77;;;16.50;78.00;;;;;;4997699;28;96416;-51
2021/08/08 10:54:06;;;;;;;16.80;10.13;;;16.50;77.90;;;;;;4997725;28;95151;-49
2021/08/08 10:56:47;;;;;;;13.00;9.85;;;16.40;77.90;;;;;;4998080;28;94980;-50
2021/08/08 10:59:24;;;;;;;17.27;11.07;;;16.40;77.90;;;;;;4997295;28;95308;-49
2021/08/08 11:02:11;;;;;;;15.52;10.82;;;16.30;77.80;;;;;;4994798;28;96455;-49
2021/08/08 11:04:43;;;;;;;15.02;10.55;;;16.30;77.90;;;;;;4978822;28;95823;-52
2021/08/08 11:07:17;;;;;;;15.43;10.82;;;16.30;77.90;;;;;;4980397;28;95051;-49
2021/08/08 11:09:50;;;;;;;15.38;11.02;;;16.20;77.80;;;;;;4978947;28;95366;-48
2021/08/08 11:12:33;;;;;;;15.80;10.98;;;16.20;78.00;;;;;;4996680;28;96738;-50
2021/08/08 11:15:08;;;;;;;15.90;11.18;;;16.20;77.70;;;;;;4996644;28;95773;-49
2021/08/08 11:17:44;;;;;;;14.68;10.65;;;16.20;77.60;;;;;;4994529;28;95363;-49
2021/08/08 11:20:26;;;;;;;14.68;10.20;;;16.20;77.60;;;;;;4973661;28;96174;-50
2021/08/08 11:23:04;;;;;;;14.23;9.88;;;16.20;77.60;;;;;;4979631;28;96071;-49
2021/08/08 11:25:43;;;;;;;12.57;9.80;;;16.20;77.50;;;;;;4997377;28;94896;-50
2021/08/08 11:28:19;;;;;;;14.85;10.90;;;16.20;77.50;;;;;;4997339;28;94940;-48
2021/08/08 11:30:53;;;;;;;14.95;9.60;;;16.10;77.80;;;;;;4996966;28;95426;-50
2021/08/08 11:33:26;;;;;;;15.43;9.68;;;16.10;77.80;;;;;;4983147;28;96508;-49
2021/08/08 11:36:01;;;;;;;16.05;10.93;;;16.10;77.70;;;;;;4982351;28;96169;-49
2021/08/08 11:38:40;;;;;;;15.90;10.80;;;16.00;78.00;;;;;;4981696;28;95054;-50
2021/08/08 11:41:22;;;;;;;16.88;11.57;;;16.00;78.10;;;;;;5000263;28;95250;-51
2021/08/08 11:44:11;;;;;;;15.80;10.95;;;16.00;78.20;;;;;;5000132;28;96390;-50
2021/08/08 11:47:02;;;;;;;14.07;10.55;;;15.90;78.30;;;;;;4980332;28;96182;-51
2021/08/08 11:49:46;;;;;;;15.23;11.40;;;15.90;78.10;;;;;;5001229;28;95542;-51
2021/08/08 11:52:24;;;;;;;15.88;11.23;;;15.90;78.20;;;;;;5000402;28;95290;-49
2021/08/08 11:55:07;;;;;;;14.73;11.27;;;15.90;78.30;;;;;;5000725;28;96471;-54
2021/08/08 11:57:43;;;;;;;16.38;12.40;;;15.80;78.00;;;;;;5000087;28;96525;-52
2021/08/08 12:00:15;;;;;;;14.45;11.55;;;15.80;77.90;;;;;;4982442;28;95121;-52
2021/08/08 12:02:48;;;;;;;13.32;10.15;;;15.80;77.90;;;;;;4999709;28;95374;-51
2021/08/08 12:05:23;;;;;;;15.73;10.95;;;15.80;77.80;;;;;;4999998;28;96400;-52
2021/08/08 12:07:57;;;;;;;15.52;11.50;;;15.80;77.90;;;;;;5000203;28;95020;-51
2021/08/08 12:10:38;;;;;;;13.82;11.43;;;15.80;77.90;;;;;;4999735;28;94973;-54
2021/08/08 12:13:18;;;;;;;18.65;11.77;;;15.70;77.70;;;;;;4999761;28;95182;-51
2021/08/08 12:15:50;;;;;;;13.00;10.18;;;15.70;77.70;;;;;;4997503;28;96508;-52
2021/08/08 12:18:31;;;;;;;17.33;11.60;;;15.70;77.70;;;;;;4995285;28;95854;-51
2021/08/08 12:21:13;;;;;;;15.02;11.35;;;15.70;77.70;;;;;;4994700;28;95257;-51
2021/08/08 12:23:45;;;;;;;15.95;11.88;;;15.60;77.60;;;;;;4999604;28;95255;-53
2021/08/08 12:26:25;;;;;;;;;;;15.60;77.50;;;;;;4999734;28;96381;-54
2021/08/08 12:29:07;;;;;;;13.10;10.75;;;15.60;77.50;;;;;;5001028;28;95779;-50
2021/08/08 12:31:43;;;;;;;12.50;10.40;;;15.60;78.10;;;;;;4996932;28;95313;-51
2021/08/08 12:34:15;;;;;;;13.70;10.70;;;15.60;77.80;;;;;;4999440;28;95282;-52
2021/08/08 12:36:48;;;;;;;12.77;10.38;;;15.70;77.70;;;;;;4999147;28;96439;-48
2021/08/08 12:39:28;;;;;;;13.45;10.95;;;15.60;77.60;;;;;;4998550;28;95535;-50
2021/08/08 12:42:02;;;;;;;15.50;10.52;;;15.60;77.50;;;;;;4998180;28;94944;-49
2021/08/08 12:44:34;;;;;;;12.35;10.98;;;15.60;77.40;;;;;;4999141;28;95186;-52
2021/08/08 12:47:06;;;;;;;13.05;11.23;;;15.50;77.30;;;;;;4997578;28;96396;-52
2021/08/08 12:49:40;;;;;;;12.98;9.77;;;15.50;77.40;;;;;;4999889;28;95808;-52
2021/08/08 12:52:11;;;;;;;13.02;10.75;;;15.60;78.20;;;;;;5000786;28;94926;-49
2021/08/08 12:54:44;;;;;;;14.05;10.73;;;15.60;78.00;;;;;;5000149;28;95218;-51
2021/08/08 12:57:17;;;;;;;12.18;10.25;;;15.70;77.60;;;;;;4998998;28;96415;-53
2021/08/08 12:59:48;;;;;;;13.40;10.63;;;15.70;77.30;;;;;;4998825;28;95861;-52
2021/08/08 13:02:20;;;;;;;12.07;10.70;;;15.70;77.10;;;;;;4998211;28;94960;-54
2021/08/08 13:04:54;;;;;;;15.40;10.70;;;15.70;76.90;;;;;;4999759;28;95204;-50
2021/08/08 13:07:27;;;;;;;14.38;9.88;;;15.80;76.90;;;;;;4999206;28;95882;-54
2021/08/08 13:10:00;;;;;;;12.32;9.48;;;15.70;76.60;;;;;;4981901;28;96213;-51
2021/08/08 13:12:35;;;;;;;14.68;10.52;;;15.70;76.60;;;;;;4999304;28;94933;-50
2021/08/08 13:15:07;;;;;;;15.35;10.57;;;15.60;76.20;;;;;;4999158;28;95070;-51
2021/08/08 13:17:39;;;;;;;12.63;10.15;;;15.60;76.20;;;;;;4977258;28;96610;-51